sensor_id;sensor_type;location;lat;lon;timestamp;P1;durP1;ratioP1;P2;durP2;ratioP2
46308;SDS011;32037;50.820;6.494;2024-03-08T00:00:22;7.23;;;6.20;;
46308;SDS011;32037;50.820;6.494;2024-03-08T00:02:51;7.00;;;6.07;;
46308;SDS011;32037;50.820;6.494;2024-03-08T00:05:21;6.67;;;6.00;;
46308;SDS011;32037;50.820;6.494;2024-03-08T00:07:54;5.50;;;4.90;;
46308;SDS011;32037;50.820;6.494;2024-03-08T00:10:22;6.33;;;5.70;;
46308;SDS011;32037;50.820;6.494;2024-03-08T00:12:54;6.97;;;5.47;;
46308;SDS011;32037;50.820;6.494;2024-03-08T00:15:23;6.03;;;5.43;;
46308;SDS011;32037;50.820;6.494;2024-03-08T00:17:52;6.87;;;6.17;;
46308;SDS011;32037;50.820;6.494;2024-03-08T00:20:24;7.33;;;6.63;;
46308;SDS011;32037;50.820;6.494;2024-03-08T00:22:54;6.73;;;5.53;;
46308;SDS011;32037;50.820;6.494;2024-03-08T00:25:24;7.20;;;6.03;;
46308;SDS011;32037;50.820;6.494;2024-03-08T00:27:55;7.10;;;6.40;;
46308;SDS011;32037;50.820;6.494;2024-03-08T00:30:25;7.13;;;6.10;;
46308;SDS011;32037;50.820;6.494;2024-03-08T00:32:54;10.37;;;7.90;;
46308;SDS011;32037;50.820;6.494;2024-03-08T00:35:25;9.00;;;6.00;;
46308;SDS011;32037;50.820;6.494;2024-03-08T00:37:55;6.67;;;5.83;;
46308;SDS011;32037;50.820;6.494;2024-03-08T00:40:24;6.80;;;5.00;;
46308;SDS011;32037;50.820;6.494;2024-03-08T00:42:55;7.97;;;6.73;;
46308;SDS011;32037;50.820;6.494;2024-03-08T00:45:24;8.30;;;5.97;;
46308;SDS011;32037;50.820;6.494;2024-03-08T00:47:55;7.63;;;6.83;;
46308;SDS011;32037;50.820;6.494;2024-03-08T00:50:25;9.27;;;7.07;;
46308;SDS011;32037;50.820;6.494;2024-03-08T00:52:55;7.37;;;5.80;;
46308;SDS011;32037;50.820;6.494;2024-03-08T00:55:24;8.20;;;6.67;;
46308;SDS011;32037;50.820;6.494;2024-03-08T00:57:53;6.53;;;5.67;;
46308;SDS011;32037;50.820;6.494;2024-03-08T01:00:25;6.20;;;5.60;;
46308;SDS011;32037;50.820;6.494;2024-03-08T01:02:54;6.70;;;5.83;;
46308;SDS011;32037;50.820;6.494;2024-03-08T01:05:23;8.20;;;6.37;;
46308;SDS011;32037;50.820;6.494;2024-03-08T01:07:54;7.20;;;5.80;;
46308;SDS011;32037;50.820;6.494;2024-03-08T01:10:23;7.63;;;6.50;;
46308;SDS011;32037;50.820;6.494;2024-03-08T01:12:51;6.93;;;6.23;;
46308;SDS011;32037;50.820;6.494;2024-03-08T01:15:21;8.33;;;7.07;;
46308;SDS011;32037;50.820;6.494;2024-03-08T01:17:51;7.97;;;6.10;;
46308;SDS011;32037;50.820;6.494;2024-03-08T01:20:20;8.53;;;6.60;;
46308;SDS011;32037;50.820;6.494;2024-03-08T01:22:49;7.43;;;6.63;;
46308;SDS011;32037;50.820;6.494;2024-03-08T01:25:21;8.70;;;6.90;;
46308;SDS011;32037;50.820;6.494;2024-03-08T01:27:49;9.00;;;7.20;;
46308;SDS011;32037;50.820;6.494;2024-03-08T01:30:21;8.20;;;6.77;;
46308;SDS011;32037;50.820;6.494;2024-03-08T01:32:52;6.90;;;6.30;;
46308;SDS011;32037;50.820;6.494;2024-03-08T01:35:23;6.80;;;6.10;;
46308;SDS011;32037;50.820;6.494;2024-03-08T01:37:54;7.33;;;6.60;;
46308;SDS011;32037;50.820;6.494;2024-03-08T01:40:24;7.00;;;6.33;;
46308;SDS011;32037;50.820;6.494;2024-03-08T01:42:55;7.03;;;6.27;;
46308;SDS011;32037;50.820;6.494;2024-03-08T01:45:25;8.23;;;6.27;;
46308;SDS011;32037;50.820;6.494;2024-03-08T01:47:54;6.40;;;5.70;;
46308;SDS011;32037;50.820;6.494;2024-03-08T01:50:24;7.47;;;6.17;;
46308;SDS011;32037;50.820;6.494;2024-03-08T01:52:55;7.20;;;6.17;;
46308;SDS011;32037;50.820;6.494;2024-03-08T01:55:27;8.87;;;6.60;;
46308;SDS011;32037;50.820;6.494;2024-03-08T01:57:55;6.53;;;5.87;;
46308;SDS011;32037;50.820;6.494;2024-03-08T02:00:25;6.80;;;6.10;;
46308;SDS011;32037;50.820;6.494;2024-03-08T02:02:56;6.07;;;5.20;;
46308;SDS011;32037;50.820;6.494;2024-03-08T02:05:25;7.80;;;6.80;;
46308;SDS011;32037;50.820;6.494;2024-03-08T02:07:55;5.73;;;5.07;;
46308;SDS011;32037;50.820;6.494;2024-03-08T02:10:24;6.47;;;5.87;;
46308;SDS011;32037;50.820;6.494;2024-03-08T02:12:55;6.53;;;5.90;;
46308;SDS011;32037;50.820;6.494;2024-03-08T02:15:23;8.80;;;7.53;;
46308;SDS011;32037;50.820;6.494;2024-03-08T02:17:55;6.47;;;5.50;;
46308;SDS011;32037;50.820;6.494;2024-03-08T02:20:24;7.13;;;6.10;;
46308;SDS011;32037;50.820;6.494;2024-03-08T02:22:56;7.80;;;6.67;;
46308;SDS011;32037;50.820;6.494;2024-03-08T02:25:25;7.23;;;6.40;;
46308;SDS011;32037;50.820;6.494;2024-03-08T02:27:53;8.50;;;5.70;;
46308;SDS011;32037;50.820;6.494;2024-03-08T02:30:24;6.87;;;6.13;;
46308;SDS011;32037;50.820;6.494;2024-03-08T02:32:56;8.20;;;6.50;;
46308;SDS011;32037;50.820;6.494;2024-03-08T02:35:25;6.63;;;5.67;;
46308;SDS011;32037;50.820;6.494;2024-03-08T02:37:56;8.53;;;7.00;;
46308;SDS011;32037;50.820;6.494;2024-03-08T02:40:25;7.50;;;6.70;;
46308;SDS011;32037;50.820;6.494;2024-03-08T02:42:54;7.27;;;6.43;;
46308;SDS011;32037;50.820;6.494;2024-03-08T02:45:22;6.73;;;6.13;;
46308;SDS011;32037;50.820;6.494;2024-03-08T02:47:53;8.23;;;7.17;;
46308;SDS011;32037;50.820;6.494;2024-03-08T02:50:23;8.97;;;7.20;;
46308;SDS011;32037;50.820;6.494;2024-03-08T02:52:51;6.80;;;6.10;;
46308;SDS011;32037;50.820;6.494;2024-03-08T02:55:25;6.47;;;5.63;;
46308;SDS011;32037;50.820;6.494;2024-03-08T02:57:55;7.63;;;6.33;;
46308;SDS011;32037;50.820;6.494;2024-03-08T03:00:25;7.13;;;5.87;;
46308;SDS011;32037;50.820;6.494;2024-03-08T03:02:55;6.73;;;6.03;;
46308;SDS011;32037;50.820;6.494;2024-03-08T03:05:25;6.70;;;6.10;;
46308;SDS011;32037;50.820;6.494;2024-03-08T03:07:55;7.67;;;6.87;;
46308;SDS011;32037;50.820;6.494;2024-03-08T03:10:26;7.67;;;6.97;;
46308;SDS011;32037;50.820;6.494;2024-03-08T03:12:55;7.53;;;5.70;;
46308;SDS011;32037;50.820;6.494;2024-03-08T03:15:25;7.80;;;6.60;;
46308;SDS011;32037;50.820;6.494;2024-03-08T03:17:55;7.40;;;5.90;;
46308;SDS011;32037;50.820;6.494;2024-03-08T03:20:23;8.30;;;6.90;;
46308;SDS011;32037;50.820;6.494;2024-03-08T03:22:54;7.97;;;6.70;;
46308;SDS011;32037;50.820;6.494;2024-03-08T03:25:23;10.73;;;8.30;;
46308;SDS011;32037;50.820;6.494;2024-03-08T03:27:56;6.97;;;6.27;;
46308;SDS011;32037;50.820;6.494;2024-03-08T03:30:25;6.60;;;5.90;;
46308;SDS011;32037;50.820;6.494;2024-03-08T03:32:55;6.83;;;6.10;;
46308;SDS011;32037;50.820;6.494;2024-03-08T03:35:28;5.60;;;5.10;;
46308;SDS011;32037;50.820;6.494;2024-03-08T03:37:56;6.80;;;6.10;;
46308;SDS011;32037;50.820;6.494;2024-03-08T03:40:34;8.17;;;5.97;;
46308;SDS011;32037;50.820;6.494;2024-03-08T03:43:07;6.90;;;6.20;;
46308;SDS011;32037;50.820;6.494;2024-03-08T03:45:40;6.03;;;5.37;;
46308;SDS011;32037;50.820;6.494;2024-03-08T03:48:09;7.23;;;6.53;;
46308;SDS011;32037;50.820;6.494;2024-03-08T03:50:40;7.03;;;6.37;;
46308;SDS011;32037;50.820;6.494;2024-03-08T03:53:09;6.87;;;6.17;;
46308;SDS011;32037;50.820;6.494;2024-03-08T03:55:37;6.10;;;5.40;;
46308;SDS011;32037;50.820;6.494;2024-03-08T03:58:11;6.20;;;5.57;;
46308;SDS011;32037;50.820;6.494;2024-03-08T04:00:40;6.37;;;5.77;;
46308;SDS011;32037;50.820;6.494;2024-03-08T04:03:10;7.00;;;6.30;;
46308;SDS011;32037;50.820;6.494;2024-03-08T04:05:40;8.40;;;7.60;;
46308;SDS011;32037;50.820;6.494;2024-03-08T04:08:10;6.90;;;6.03;;
46308;SDS011;32037;50.820;6.494;2024-03-08T04:10:38;7.43;;;6.47;;
46308;SDS011;32037;50.820;6.494;2024-03-08T04:13:11;7.03;;;5.93;;
46308;SDS011;32037;50.820;6.494;2024-03-08T04:15:41;10.10;;;7.47;;
46308;SDS011;32037;50.820;6.494;2024-03-08T04:18:15;8.23;;;7.43;;
46308;SDS011;32037;50.820;6.494;2024-03-08T04:20:44;8.47;;;6.67;;
46308;SDS011;32037;50.820;6.494;2024-03-08T04:23:13;8.93;;;7.17;;
46308;SDS011;32037;50.820;6.494;2024-03-08T04:25:41;7.40;;;6.60;;
46308;SDS011;32037;50.820;6.494;2024-03-08T04:28:11;8.00;;;6.37;;
46308;SDS011;32037;50.820;6.494;2024-03-08T04:30:40;6.83;;;6.10;;
46308;SDS011;32037;50.820;6.494;2024-03-08T04:33:10;7.67;;;6.97;;
46308;SDS011;32037;50.820;6.494;2024-03-08T04:35:40;6.50;;;5.90;;
46308;SDS011;32037;50.820;6.494;2024-03-08T04:38:10;6.53;;;5.70;;
46308;SDS011;32037;50.820;6.494;2024-03-08T04:40:40;7.53;;;6.70;;
46308;SDS011;32037;50.820;6.494;2024-03-08T04:43:11;6.87;;;6.17;;
46308;SDS011;32037;50.820;6.494;2024-03-08T04:45:41;6.60;;;5.43;;
46308;SDS011;32037;50.820;6.494;2024-03-08T04:48:10;8.10;;;6.50;;
46308;SDS011;32037;50.820;6.494;2024-03-08T04:50:40;7.70;;;6.70;;
46308;SDS011;32037;50.820;6.494;2024-03-08T04:53:10;8.00;;;6.57;;
46308;SDS011;32037;50.820;6.494;2024-03-08T04:55:39;6.70;;;5.70;;
46308;SDS011;32037;50.820;6.494;2024-03-08T04:58:11;8.00;;;7.20;;
46308;SDS011;32037;50.820;6.494;2024-03-08T05:00:40;8.10;;;6.90;;
46308;SDS011;32037;50.820;6.494;2024-03-08T05:03:10;6.40;;;5.80;;
46308;SDS011;32037;50.820;6.494;2024-03-08T05:05:40;6.90;;;6.20;;
46308;SDS011;32037;50.820;6.494;2024-03-08T05:08:10;7.23;;;6.50;;
46308;SDS011;32037;50.820;6.494;2024-03-08T05:10:40;6.83;;;6.10;;
46308;SDS011;32037;50.820;6.494;2024-03-08T05:13:11;8.10;;;6.90;;
46308;SDS011;32037;50.820;6.494;2024-03-08T05:15:40;6.87;;;6.07;;
46308;SDS011;32037;50.820;6.494;2024-03-08T05:18:10;6.60;;;5.90;;
46308;SDS011;32037;50.820;6.494;2024-03-08T05:20:41;8.07;;;7.27;;
46308;SDS011;32037;50.820;6.494;2024-03-08T05:23:10;9.17;;;7.20;;
46308;SDS011;32037;50.820;6.494;2024-03-08T05:25:40;7.10;;;6.20;;
46308;SDS011;32037;50.820;6.494;2024-03-08T05:28:09;9.00;;;5.80;;
46308;SDS011;32037;50.820;6.494;2024-03-08T05:30:40;7.90;;;6.80;;
46308;SDS011;32037;50.820;6.494;2024-03-08T05:33:10;6.93;;;5.83;;
46308;SDS011;32037;50.820;6.494;2024-03-08T05:35:40;7.53;;;6.30;;
46308;SDS011;32037;50.820;6.494;2024-03-08T05:38:09;7.37;;;6.30;;
46308;SDS011;32037;50.820;6.494;2024-03-08T05:40:40;6.63;;;5.90;;
46308;SDS011;32037;50.820;6.494;2024-03-08T05:43:09;7.27;;;6.13;;
46308;SDS011;32037;50.820;6.494;2024-03-08T05:45:40;8.57;;;6.03;;
46308;SDS011;32037;50.820;6.494;2024-03-08T05:48:10;7.43;;;6.37;;
46308;SDS011;32037;50.820;6.494;2024-03-08T05:50:40;7.57;;;6.00;;
46308;SDS011;32037;50.820;6.494;2024-03-08T05:53:10;7.07;;;6.37;;
46308;SDS011;32037;50.820;6.494;2024-03-08T05:55:40;7.13;;;6.00;;
46308;SDS011;32037;50.820;6.494;2024-03-08T05:58:11;7.30;;;6.07;;
46308;SDS011;32037;50.820;6.494;2024-03-08T06:00:40;5.93;;;5.23;;
46308;SDS011;32037;50.820;6.494;2024-03-08T06:03:09;8.13;;;7.30;;
46308;SDS011;32037;50.820;6.494;2024-03-08T06:05:39;8.13;;;7.30;;
46308;SDS011;32037;50.820;6.494;2024-03-08T06:08:08;7.27;;;6.20;;
46308;SDS011;32037;50.820;6.494;2024-03-08T06:10:40;8.13;;;6.23;;
46308;SDS011;32037;50.820;6.494;2024-03-08T06:13:08;7.90;;;6.00;;
46308;SDS011;32037;50.820;6.494;2024-03-08T06:15:40;7.30;;;6.13;;
46308;SDS011;32037;50.820;6.494;2024-03-08T06:18:09;6.40;;;5.70;;
46308;SDS011;32037;50.820;6.494;2024-03-08T06:20:40;6.33;;;5.73;;
46308;SDS011;32037;50.820;6.494;2024-03-08T06:23:10;8.30;;;7.00;;
46308;SDS011;32037;50.820;6.494;2024-03-08T06:25:40;6.73;;;6.00;;
46308;SDS011;32037;50.820;6.494;2024-03-08T06:28:10;8.00;;;6.90;;
46308;SDS011;32037;50.820;6.494;2024-03-08T06:30:41;8.03;;;6.47;;
46308;SDS011;32037;50.820;6.494;2024-03-08T06:33:10;6.60;;;5.63;;
46308;SDS011;32037;50.820;6.494;2024-03-08T06:35:39;6.50;;;5.60;;
46308;SDS011;32037;50.820;6.494;2024-03-08T06:38:10;7.50;;;6.27;;
46308;SDS011;32037;50.820;6.494;2024-03-08T06:40:40;7.60;;;6.47;;
46308;SDS011;32037;50.820;6.494;2024-03-08T06:43:10;8.87;;;7.10;;
46308;SDS011;32037;50.820;6.494;2024-03-08T06:45:46;8.67;;;7.10;;
46308;SDS011;32037;50.820;6.494;2024-03-08T06:48:15;8.80;;;6.93;;
46308;SDS011;32037;50.820;6.494;2024-03-08T06:50:45;8.00;;;7.20;;
46308;SDS011;32037;50.820;6.494;2024-03-08T06:53:15;11.57;;;6.93;;
46308;SDS011;32037;50.820;6.494;2024-03-08T06:55:50;8.37;;;6.90;;
46308;SDS011;32037;50.820;6.494;2024-03-08T06:58:22;8.90;;;6.57;;
46308;SDS011;32037;50.820;6.494;2024-03-08T07:00:52;7.37;;;5.87;;
46308;SDS011;32037;50.820;6.494;2024-03-08T07:03:25;7.17;;;5.47;;
46308;SDS011;32037;50.820;6.494;2024-03-08T07:05:56;8.90;;;6.37;;
46308;SDS011;32037;50.820;6.494;2024-03-08T07:08:24;9.47;;;7.57;;
46308;SDS011;32037;50.820;6.494;2024-03-08T07:10:53;8.87;;;6.27;;
46308;SDS011;32037;50.820;6.494;2024-03-08T07:13:22;8.00;;;7.00;;
46308;SDS011;32037;50.820;6.494;2024-03-08T07:15:55;8.50;;;6.33;;
46308;SDS011;32037;50.820;6.494;2024-03-08T07:18:25;8.43;;;6.63;;
46308;SDS011;32037;50.820;6.494;2024-03-08T07:20:55;8.87;;;7.67;;
46308;SDS011;32037;50.820;6.494;2024-03-08T07:23:25;8.67;;;6.90;;
46308;SDS011;32037;50.820;6.494;2024-03-08T07:26:11;10.30;;;7.40;;
46308;SDS011;32037;50.820;6.494;2024-03-08T07:28:43;8.10;;;6.67;;
46308;SDS011;32037;50.820;6.494;2024-03-08T07:31:13;10.07;;;7.83;;
46308;SDS011;32037;50.820;6.494;2024-03-08T07:33:53;6.80;;;5.90;;
46308;SDS011;32037;50.820;6.494;2024-03-08T07:36:21;8.93;;;7.33;;
46308;SDS011;32037;50.820;6.494;2024-03-08T07:38:53;7.90;;;7.07;;
46308;SDS011;32037;50.820;6.494;2024-03-08T07:41:21;11.70;;;7.87;;
46308;SDS011;32037;50.820;6.494;2024-03-08T07:43:51;9.30;;;7.53;;
46308;SDS011;32037;50.820;6.494;2024-03-08T07:46:21;7.53;;;6.73;;
46308;SDS011;32037;50.820;6.494;2024-03-08T07:48:50;9.17;;;7.43;;
46308;SDS011;32037;50.820;6.494;2024-03-08T07:51:19;10.53;;;8.37;;
46308;SDS011;32037;50.820;6.494;2024-03-08T07:53:48;9.03;;;7.30;;
46308;SDS011;32037;50.820;6.494;2024-03-08T07:56:16;8.10;;;6.50;;
46308;SDS011;32037;50.820;6.494;2024-03-08T07:58:45;11.53;;;7.90;;
46308;SDS011;32037;50.820;6.494;2024-03-08T08:01:18;9.27;;;7.50;;
46308;SDS011;32037;50.820;6.494;2024-03-08T08:03:48;8.57;;;6.30;;
46308;SDS011;32037;50.820;6.494;2024-03-08T08:06:16;9.90;;;8.43;;
46308;SDS011;32037;50.820;6.494;2024-03-08T08:08:45;8.80;;;7.10;;
46308;SDS011;32037;50.820;6.494;2024-03-08T08:11:15;10.03;;;7.30;;
46308;SDS011;32037;50.820;6.494;2024-03-08T08:13:43;10.10;;;8.50;;
46308;SDS011;32037;50.820;6.494;2024-03-08T08:16:14;8.30;;;7.37;;
46308;SDS011;32037;50.820;6.494;2024-03-08T08:18:43;8.47;;;7.13;;
46308;SDS011;32037;50.820;6.494;2024-03-08T08:21:16;10.13;;;7.37;;
46308;SDS011;32037;50.820;6.494;2024-03-08T08:23:45;9.27;;;7.33;;
46308;SDS011;32037;50.820;6.494;2024-03-08T08:26:15;7.47;;;5.97;;
46308;SDS011;32037;50.820;6.494;2024-03-08T08:28:45;9.70;;;8.37;;
46308;SDS011;32037;50.820;6.494;2024-03-08T08:31:13;6.97;;;6.20;;
46308;SDS011;32037;50.820;6.494;2024-03-08T08:33:42;8.27;;;6.87;;
46308;SDS011;32037;50.820;6.494;2024-03-08T08:36:11;8.17;;;6.53;;
46308;SDS011;32037;50.820;6.494;2024-03-08T08:38:41;8.33;;;7.40;;
46308;SDS011;32037;50.820;6.494;2024-03-08T08:41:14;8.27;;;7.37;;
46308;SDS011;32037;50.820;6.494;2024-03-08T08:43:45;8.23;;;6.60;;
46308;SDS011;32037;50.820;6.494;2024-03-08T08:46:29;10.87;;;6.73;;
46308;SDS011;32037;50.820;6.494;2024-03-08T08:48:57;9.73;;;7.07;;
46308;SDS011;32037;50.820;6.494;2024-03-08T08:51:26;11.30;;;8.10;;
46308;SDS011;32037;50.820;6.494;2024-03-08T08:53:56;9.57;;;7.30;;
46308;SDS011;32037;50.820;6.494;2024-03-08T08:56:25;9.73;;;8.10;;
46308;SDS011;32037;50.820;6.494;2024-03-08T08:58:55;9.00;;;7.83;;
46308;SDS011;32037;50.820;6.494;2024-03-08T09:01:24;8.50;;;7.60;;
46308;SDS011;32037;50.820;6.494;2024-03-08T09:03:52;9.33;;;7.80;;
46308;SDS011;32037;50.820;6.494;2024-03-08T09:06:20;8.60;;;7.47;;
46308;SDS011;32037;50.820;6.494;2024-03-08T09:08:49;10.60;;;8.43;;
46308;SDS011;32037;50.820;6.494;2024-03-08T09:11:18;9.60;;;7.50;;
46308;SDS011;32037;50.820;6.494;2024-03-08T09:13:47;8.40;;;7.53;;
46308;SDS011;32037;50.820;6.494;2024-03-08T09:16:15;9.07;;;7.97;;
46308;SDS011;32037;50.820;6.494;2024-03-08T09:18:44;8.07;;;7.10;;
46308;SDS011;32037;50.820;6.494;2024-03-08T09:21:13;9.87;;;7.70;;
46308;SDS011;32037;50.820;6.494;2024-03-08T09:23:41;8.30;;;7.40;;
46308;SDS011;32037;50.820;6.494;2024-03-08T09:26:11;8.77;;;7.03;;
46308;SDS011;32037;50.820;6.494;2024-03-08T09:28:55;10.80;;;8.87;;
46308;SDS011;32037;50.820;6.494;2024-03-08T09:31:25;9.83;;;8.43;;
46308;SDS011;32037;50.820;6.494;2024-03-08T09:33:55;10.50;;;9.07;;
46308;SDS011;32037;50.820;6.494;2024-03-08T09:36:23;10.10;;;8.00;;
46308;SDS011;32037;50.820;6.494;2024-03-08T09:38:52;9.90;;;7.67;;
46308;SDS011;32037;50.820;6.494;2024-03-08T09:41:20;9.00;;;7.43;;
46308;SDS011;32037;50.820;6.494;2024-03-08T09:43:48;9.43;;;8.03;;
46308;SDS011;32037;50.820;6.494;2024-03-08T09:46:19;12.73;;;7.80;;
46308;SDS011;32037;50.820;6.494;2024-03-08T09:48:49;9.40;;;7.90;;
46308;SDS011;32037;50.820;6.494;2024-03-08T09:51:20;10.60;;;8.50;;
46308;SDS011;32037;50.820;6.494;2024-03-08T09:53:52;9.93;;;8.17;;
46308;SDS011;32037;50.820;6.494;2024-03-08T09:56:22;10.43;;;8.30;;
46308;SDS011;32037;50.820;6.494;2024-03-08T09:58:51;10.00;;;8.90;;
46308;SDS011;32037;50.820;6.494;2024-03-08T10:01:42;9.27;;;8.13;;
46308;SDS011;32037;50.820;6.494;2024-03-08T10:04:10;10.60;;;7.67;;
46308;SDS011;32037;50.820;6.494;2024-03-08T10:06:40;10.27;;;8.70;;
46308;SDS011;32037;50.820;6.494;2024-03-08T10:09:08;11.13;;;8.30;;
46308;SDS011;32037;50.820;6.494;2024-03-08T10:11:40;9.27;;;7.80;;
46308;SDS011;32037;50.820;6.494;2024-03-08T10:14:09;11.50;;;8.20;;
46308;SDS011;32037;50.820;6.494;2024-03-08T10:16:38;10.13;;;7.90;;
46308;SDS011;32037;50.820;6.494;2024-03-08T10:19:09;9.87;;;7.43;;
46308;SDS011;32037;50.820;6.494;2024-03-08T10:21:47;10.30;;;8.10;;
46308;SDS011;32037;50.820;6.494;2024-03-08T10:24:16;10.23;;;8.37;;
46308;SDS011;32037;50.820;6.494;2024-03-08T10:26:45;9.83;;;7.80;;
46308;SDS011;32037;50.820;6.494;2024-03-08T10:29:14;10.40;;;7.50;;
46308;SDS011;32037;50.820;6.494;2024-03-08T10:31:44;12.40;;;8.93;;
46308;SDS011;32037;50.820;6.494;2024-03-08T10:34:15;9.77;;;8.33;;
46308;SDS011;32037;50.820;6.494;2024-03-08T10:36:44;8.20;;;7.10;;
46308;SDS011;32037;50.820;6.494;2024-03-08T10:39:22;9.87;;;8.80;;
46308;SDS011;32037;50.820;6.494;2024-03-08T10:41:56;8.77;;;7.87;;
46308;SDS011;32037;50.820;6.494;2024-03-08T10:44:37;10.13;;;9.03;;
46308;SDS011;32037;50.820;6.494;2024-03-08T10:47:16;10.40;;;8.00;;
46308;SDS011;32037;50.820;6.494;2024-03-08T10:50:03;10.27;;;8.30;;
46308;SDS011;32037;50.820;6.494;2024-03-08T10:52:36;12.80;;;8.57;;
46308;SDS011;32037;50.820;6.494;2024-03-08T10:55:06;11.57;;;8.80;;
46308;SDS011;32037;50.820;6.494;2024-03-08T10:57:39;14.47;;;9.17;;
46308;SDS011;32037;50.820;6.494;2024-03-08T11:00:10;11.17;;;8.47;;
46308;SDS011;32037;50.820;6.494;2024-03-08T11:02:43;10.13;;;8.93;;
46308;SDS011;32037;50.820;6.494;2024-03-08T11:05:15;11.63;;;9.27;;
46308;SDS011;32037;50.820;6.494;2024-03-08T11:08:02;12.67;;;8.70;;
46308;SDS011;32037;50.820;6.494;2024-03-08T11:10:31;9.40;;;7.80;;
46308;SDS011;32037;50.820;6.494;2024-03-08T11:13:00;12.17;;;9.00;;
46308;SDS011;32037;50.820;6.494;2024-03-08T11:15:29;12.20;;;9.13;;
46308;SDS011;32037;50.820;6.494;2024-03-08T11:17:58;9.50;;;7.93;;
46308;SDS011;32037;50.820;6.494;2024-03-08T11:20:29;12.13;;;9.37;;
46308;SDS011;32037;50.820;6.494;2024-03-08T11:23:04;10.57;;;8.40;;
46308;SDS011;32037;50.820;6.494;2024-03-08T11:25:37;12.47;;;8.97;;
46308;SDS011;32037;50.820;6.494;2024-03-08T11:28:13;12.67;;;8.67;;
46308;SDS011;32037;50.820;6.494;2024-03-08T11:33:50;11.20;;;9.47;;
46308;SDS011;32037;50.820;6.494;2024-03-08T11:36:22;10.10;;;8.00;;
46308;SDS011;32037;50.820;6.494;2024-03-08T11:38:55;13.07;;;9.70;;
46308;SDS011;32037;50.820;6.494;2024-03-08T11:41:25;9.00;;;8.07;;
46308;SDS011;32037;50.820;6.494;2024-03-08T11:44:02;8.50;;;7.00;;
46308;SDS011;32037;50.820;6.494;2024-03-08T11:46:33;12.13;;;10.40;;
46308;SDS011;32037;50.820;6.494;2024-03-08T11:49:03;13.40;;;8.70;;
46308;SDS011;32037;50.820;6.494;2024-03-08T11:51:34;11.00;;;8.90;;
46308;SDS011;32037;50.820;6.494;2024-03-08T11:54:03;11.20;;;7.97;;
46308;SDS011;32037;50.820;6.494;2024-03-08T11:56:32;10.33;;;8.17;;
46308;SDS011;32037;50.820;6.494;2024-03-08T11:59:00;9.70;;;7.20;;
46308;SDS011;32037;50.820;6.494;2024-03-08T12:01:30;11.40;;;7.90;;
46308;SDS011;32037;50.820;6.494;2024-03-08T12:04:00;12.00;;;7.63;;
46308;SDS011;32037;50.820;6.494;2024-03-08T12:06:37;10.83;;;9.17;;
46308;SDS011;32037;50.820;6.494;2024-03-08T12:09:08;10.77;;;9.10;;
46308;SDS011;32037;50.820;6.494;2024-03-08T12:11:37;10.80;;;7.70;;
46308;SDS011;32037;50.820;6.494;2024-03-08T12:14:06;11.03;;;8.50;;
46308;SDS011;32037;50.820;6.494;2024-03-08T12:16:36;11.53;;;9.20;;
46308;SDS011;32037;50.820;6.494;2024-03-08T12:19:06;9.63;;;8.53;;
46308;SDS011;32037;50.820;6.494;2024-03-08T12:21:37;10.83;;;8.60;;
46308;SDS011;32037;50.820;6.494;2024-03-08T12:24:14;9.53;;;7.60;;
46308;SDS011;32037;50.820;6.494;2024-03-08T12:26:45;9.30;;;7.30;;
46308;SDS011;32037;50.820;6.494;2024-03-08T12:29:18;10.93;;;8.10;;
46308;SDS011;32037;50.820;6.494;2024-03-08T12:31:53;8.53;;;7.20;;
46308;SDS011;32037;50.820;6.494;2024-03-08T12:34:25;8.53;;;7.20;;
46308;SDS011;32037;50.820;6.494;2024-03-08T12:36:57;9.60;;;7.93;;
46308;SDS011;32037;50.820;6.494;2024-03-08T12:39:25;10.87;;;8.60;;
46308;SDS011;32037;50.820;6.494;2024-03-08T12:41:55;9.47;;;7.43;;
46308;SDS011;32037;50.820;6.494;2024-03-08T12:44:25;10.00;;;8.33;;
46308;SDS011;32037;50.820;6.494;2024-03-08T12:46:55;9.87;;;8.87;;
46308;SDS011;32037;50.820;6.494;2024-03-08T12:49:25;9.40;;;8.07;;
46308;SDS011;32037;50.820;6.494;2024-03-08T12:51:57;9.37;;;7.20;;
46308;SDS011;32037;50.820;6.494;2024-03-08T12:54:25;9.87;;;8.30;;
46308;SDS011;32037;50.820;6.494;2024-03-08T12:56:55;8.77;;;7.83;;
46308;SDS011;32037;50.820;6.494;2024-03-08T12:59:25;10.20;;;7.53;;
46308;SDS011;32037;50.820;6.494;2024-03-08T13:01:55;7.77;;;6.53;;
46308;SDS011;32037;50.820;6.494;2024-03-08T13:04:26;8.87;;;7.60;;
46308;SDS011;32037;50.820;6.494;2024-03-08T13:06:54;9.33;;;8.10;;
46308;SDS011;32037;50.820;6.494;2024-03-08T13:09:24;9.97;;;8.83;;
46308;SDS011;32037;50.820;6.494;2024-03-08T13:11:55;9.50;;;7.37;;
46308;SDS011;32037;50.820;6.494;2024-03-08T13:14:25;10.70;;;7.77;;
46308;SDS011;32037;50.820;6.494;2024-03-08T13:16:55;11.30;;;9.30;;
46308;SDS011;32037;50.820;6.494;2024-03-08T13:19:25;8.17;;;6.83;;
46308;SDS011;32037;50.820;6.494;2024-03-08T13:21:54;9.83;;;7.50;;
46308;SDS011;32037;50.820;6.494;2024-03-08T13:24:25;10.10;;;6.50;;
46308;SDS011;32037;50.820;6.494;2024-03-08T13:26:54;7.83;;;6.93;;
46308;SDS011;32037;50.820;6.494;2024-03-08T13:29:23;10.40;;;6.93;;
46308;SDS011;32037;50.820;6.494;2024-03-08T13:31:55;8.80;;;7.57;;
46308;SDS011;32037;50.820;6.494;2024-03-08T13:34:28;9.43;;;6.53;;
46308;SDS011;32037;50.820;6.494;2024-03-08T13:37:00;11.20;;;7.53;;
46308;SDS011;32037;50.820;6.494;2024-03-08T13:39:31;9.70;;;7.20;;
46308;SDS011;32037;50.820;6.494;2024-03-08T13:42:10;10.43;;;7.70;;
46308;SDS011;32037;50.820;6.494;2024-03-08T13:44:43;7.43;;;6.53;;
46308;SDS011;32037;50.820;6.494;2024-03-08T13:47:14;8.57;;;6.97;;
46308;SDS011;32037;50.820;6.494;2024-03-08T13:49:43;7.37;;;6.50;;
46308;SDS011;32037;50.820;6.494;2024-03-08T13:52:14;8.30;;;6.63;;
46308;SDS011;32037;50.820;6.494;2024-03-08T13:54:44;9.10;;;7.80;;
46308;SDS011;32037;50.820;6.494;2024-03-08T13:57:14;7.60;;;6.30;;
46308;SDS011;32037;50.820;6.494;2024-03-08T13:59:44;7.30;;;6.30;;
46308;SDS011;32037;50.820;6.494;2024-03-08T14:02:13;7.53;;;5.47;;
46308;SDS011;32037;50.820;6.494;2024-03-08T14:04:41;8.90;;;6.80;;
46308;SDS011;32037;50.820;6.494;2024-03-08T14:07:10;7.70;;;6.67;;
46308;SDS011;32037;50.820;6.494;2024-03-08T14:09:42;7.33;;;6.53;;
46308;SDS011;32037;50.820;6.494;2024-03-08T14:12:11;8.73;;;7.07;;
46308;SDS011;32037;50.820;6.494;2024-03-08T14:14:40;8.20;;;6.00;;
46308;SDS011;32037;50.820;6.494;2024-03-08T14:17:10;10.00;;;7.30;;
46308;SDS011;32037;50.820;6.494;2024-03-08T14:19:44;8.47;;;7.60;;
46308;SDS011;32037;50.820;6.494;2024-03-08T14:22:14;8.43;;;6.60;;
46308;SDS011;32037;50.820;6.494;2024-03-08T14:24:45;9.50;;;6.70;;
46308;SDS011;32037;50.820;6.494;2024-03-08T14:27:14;9.30;;;6.83;;
46308;SDS011;32037;50.820;6.494;2024-03-08T14:29:43;6.90;;;5.77;;
46308;SDS011;32037;50.820;6.494;2024-03-08T14:32:13;9.23;;;6.60;;
46308;SDS011;32037;50.820;6.494;2024-03-08T14:34:41;7.90;;;6.40;;
46308;SDS011;32037;50.820;6.494;2024-03-08T14:37:10;9.43;;;7.40;;
46308;SDS011;32037;50.820;6.494;2024-03-08T14:39:39;8.07;;;6.53;;
46308;SDS011;32037;50.820;6.494;2024-03-08T14:42:11;7.93;;;6.93;;
46308;SDS011;32037;50.820;6.494;2024-03-08T14:44:41;8.53;;;6.90;;
46308;SDS011;32037;50.820;6.494;2024-03-08T14:47:14;10.37;;;7.87;;
46308;SDS011;32037;50.820;6.494;2024-03-08T14:49:44;8.23;;;7.10;;
46308;SDS011;32037;50.820;6.494;2024-03-08T14:52:13;8.20;;;7.30;;
46308;SDS011;32037;50.820;6.494;2024-03-08T14:54:54;9.83;;;8.00;;
46308;SDS011;32037;50.820;6.494;2024-03-08T14:57:24;9.80;;;8.00;;
46308;SDS011;32037;50.820;6.494;2024-03-08T14:59:55;10.07;;;7.83;;
46308;SDS011;32037;50.820;6.494;2024-03-08T15:02:29;10.63;;;7.90;;
46308;SDS011;32037;50.820;6.494;2024-03-08T15:04:59;10.03;;;8.07;;
46308;SDS011;32037;50.820;6.494;2024-03-08T15:07:29;9.70;;;7.20;;